Time;durP1;ratioP1;P1;durP2;ratioP2;P2;SDS_P1;SDS_P2;PMS_P1;PMS_P2;Temp;Humidity;BMP_temperature;BMP_pressure;BME280_temperature;BME280_humidity;BME280_pressure;Samples;Min_cycle;Max_cycle;Signal;HPM_P1;HPM_P2
2022/07/28 00:01:32;;;;;;;7.47;1.50;;;;;;;25.01;41.94;100181.69;4936218;29;20662;-69
2022/07/28 00:03:57;;;;;;;3.90;1.77;;;;;;;24.97;41.30;100173.06;4920502;29;20175;-68
2022/07/28 00:06:22;;;;;;;3.40;1.30;;;;;;;24.88;41.52;100171.94;4936999;29;20552;-69
2022/07/28 00:08:48;;;;;;;5.87;1.40;;;;;;;24.89;41.32;100168.59;4937092;29;20171;-69
2022/07/28 00:11:13;;;;;;;4.93;1.70;;;;;;;24.81;41.01;100167.03;4921182;29;20179;-70
2022/07/28 00:13:39;;;;;;;6.00;1.33;;;;;;;24.86;41.91;100163.69;4936946;29;20182;-69
2022/07/28 00:16:05;;;;;;;4.80;1.53;;;;;;;24.95;41.77;100161.13;4936827;28;20207;-68
2022/07/28 00:18:31;;;;;;;5.50;1.47;;;;;;;24.94;41.56;100158.66;4937372;29;20540;-68
2022/07/28 00:20:56;;;;;;;3.70;1.20;;;;;;;24.85;41.43;100155.44;4921096;29;20438;-69
2022/07/28 00:23:22;;;;;;;4.17;1.30;;;;;;;24.92;41.88;100156.19;4921381;29;20175;-68
2022/07/28 00:25:47;;;;;;;2.83;1.50;;;;;;;24.99;41.81;100149.53;4954364;29;20186;-68
2022/07/28 00:28:13;;;;;;;5.63;1.40;;;;;;;24.87;41.34;100148.00;4937212;29;20538;-68
2022/07/28 00:30:38;;;;;;;2.40;1.33;;;;;;;24.88;41.38;100152.53;4935127;29;20171;-69
2022/07/28 00:33:04;;;;;;;4.67;1.40;;;;;;;24.79;41.66;100152.19;4935155;29;20186;-68
2022/07/28 00:35:29;;;;;;;4.67;1.37;;;;;;;24.94;41.91;100150.00;4934716;29;20242;-68
2022/07/28 00:37:54;;;;;;;3.97;1.50;;;;;;;24.95;41.82;100152.47;4918856;29;20210;-69
2022/07/28 00:40:20;;;;;;;3.10;1.20;;;;;;;24.95;41.74;100148.75;4935235;29;20266;-69
2022/07/28 00:42:45;;;;;;;3.87;1.30;;;;;;;24.89;41.72;100150.47;4937695;29;20182;-69
2022/07/28 00:45:11;;;;;;;8.70;1.40;;;;;;;24.91;41.58;100147.97;4935595;29;20214;-69
2022/07/28 00:47:36;;;;;;;3.03;1.17;;;;;;;24.88;42.03;100148.84;4919532;28;20758;-68
2022/07/28 00:50:02;;;;;;;2.77;1.10;;;;;;;24.90;41.75;100146.31;4938115;29;20179;-70
2022/07/28 00:52:28;;;;;;;2.87;1.20;;;;;;;24.96;41.65;100135.94;4935810;29;20185;-68
2022/07/28 00:54:53;;;;;;;2.10;1.10;;;;;;;24.95;41.57;100135.13;4920705;29;20737;-69
2022/07/28 00:57:20;;;;;;;3.30;1.40;;;;;;;24.81;41.92;100137.34;4953755;29;20179;-69
2022/07/28 00:59:46;;;;;;;4.03;1.47;;;;;;;24.89;41.70;100136.03;4936102;29;20289;-69
2022/07/28 01:02:11;;;;;;;3.83;1.40;;;;;;;24.93;41.88;100123.19;4920459;29;20423;-69
2022/07/28 01:04:36;;;;;;;4.23;1.13;;;;;;;24.89;41.57;100130.25;4936276;28;20175;-69
2022/07/28 01:07:31;;;;;;;2.40;1.40;;;;;;;24.93;41.67;100123.19;4935933;29;20186;-70
2022/07/28 01:10:07;;;;;;;4.30;1.10;;;;;;;24.84;41.74;100119.97;4934147;28;20395;-69
2022/07/28 01:12:50;;;;;;;3.20;1.20;;;;;;;24.93;41.54;100128.94;4919094;29;20435;-69
2022/07/28 01:15:28;;;;;;;2.00;1.03;;;;;;;24.95;41.49;100126.47;4919581;29;20910;-69
2022/07/28 01:18:05;;;;;;;3.17;1.07;;;;;;;24.95;41.57;100116.97;4934534;29;20434;-69
2022/07/28 01:20:41;;;;;;;4.30;0.97;;;;;;;24.98;41.86;100125.59;4935682;29;20434;-68
2022/07/28 01:23:18;;;;;;;6.20;1.50;;;;;;;24.97;41.63;100118.19;4934919;29;20430;-68
2022/07/28 01:25:51;;;;;;;4.27;1.37;;;;;;;24.97;41.87;100112.41;4936195;29;20967;-68
2022/07/28 01:28:54;;;;;;;3.63;1.40;;;;;;;24.94;42.01;100112.47;4920308;29;20438;-69
2022/07/28 01:31:22;;;;;;;4.50;1.40;;;;;;;24.92;41.82;100114.94;4952897;29;20414;-69
2022/07/28 01:33:49;;;;;;;3.20;1.27;;;;;;;24.74;41.72;100115.13;4920128;29;20886;-68
2022/07/28 01:36:20;;;;;;;5.30;1.53;;;;;;;24.87;41.65;100110.47;4916563;29;20483;-69
2022/07/28 01:38:46;;;;;;;4.57;1.60;;;;;;;24.92;41.77;100110.00;4901446;29;20487;-69
2022/07/28 01:41:19;;;;;;;3.63;1.10;;;;;;;24.85;41.74;100103.47;4916805;29;20915;-69
2022/07/28 01:43:45;;;;;;;4.50;1.20;;;;;;;24.88;41.66;100106.31;4900873;29;20588;-69
2022/07/28 01:46:11;;;;;;;3.23;1.10;;;;;;;24.88;41.23;100106.31;4900955;29;20438;-69
2022/07/28 01:48:38;;;;;;;3.27;1.60;;;;;;;24.83;41.74;100094.44;4916382;29;20479;-69
2022/07/28 01:51:03;;;;;;;3.97;1.47;;;;;;;24.88;41.52;100097.66;4900699;29;20735;-68
2022/07/28 01:53:30;;;;;;;4.27;1.50;;;;;;;24.89;42.00;100096.38;4900516;29;20423;-68
2022/07/28 01:55:55;;;;;;;4.23;1.37;;;;;;;24.87;42.56;100100.97;4900485;29;20251;-70
2022/07/28 01:58:21;;;;;;;4.70;1.60;;;;;;;24.87;41.61;100096.00;4900449;29;20471;-69
2022/07/28 02:00:50;;;;;;;3.40;1.53;;;;;;;24.88;41.90;100093.97;4900122;29;20275;-69
2022/07/28 02:03:18;;;;;;;7.73;1.50;;;;;;;24.88;41.85;100094.75;4900838;29;20187;-69
2022/07/28 02:05:44;;;;;;;3.53;1.47;;;;;;;24.86;41.80;100090.66;4900367;29;20549;-69
2022/07/28 02:08:11;;;;;;;5.17;1.67;;;;;;;24.87;41.64;100098.91;4916041;29;20810;-69
2022/07/28 02:10:36;;;;;;;4.33;1.33;;;;;;;24.83;41.74;100089.44;4915963;29;20428;-69
2022/07/28 02:13:02;;;;;;;4.43;1.67;;;;;;;24.87;41.45;100083.63;4915786;29;20467;-69
2022/07/28 02:15:27;;;;;;;2.50;1.10;;;;;;;24.86;41.46;100077.06;4915949;29;20184;-69
2022/07/28 02:17:53;;;;;;;3.97;1.53;;;;;;;24.86;41.97;100076.22;4915838;29;20234;-70
2022/07/28 02:20:18;;;;;;;4.63;1.60;;;;;;;24.82;41.98;100087.81;4914470;29;20207;-70
2022/07/28 02:22:44;;;;;;;2.97;1.23;;;;;;;24.84;41.92;100073.75;4915268;29;20734;-69
2022/07/28 02:25:10;;;;;;;6.97;1.40;;;;;;;24.80;42.12;100075.88;4914771;29;20187;-68
2022/07/28 02:27:35;;;;;;;2.93;1.10;;;;;;;24.80;41.56;100070.13;4926034;29;20197;-70
2022/07/28 02:30:08;;;;;;;2.50;1.10;;;;;;;24.79;42.05;100074.22;4933648;29;20258;-69
2022/07/28 02:32:51;;;;;;;3.57;1.40;;;;;;;24.82;41.64;100064.72;4917066;29;20186;-69
2022/07/28 02:35:35;;;;;;;4.33;1.23;;;;;;;24.81;41.88;100063.09;4917549;29;20537;-69
2022/07/28 02:38:04;;;;;;;4.00;1.30;;;;;;;24.74;42.00;100066.03;4950194;29;20438;-69
2022/07/28 02:40:37;;;;;;;3.43;1.30;;;;;;;24.80;41.95;100069.28;4933478;29;20823;-68
2022/07/28 02:43:05;;;;;;;4.20;1.73;;;;;;;24.72;42.15;100059.88;4917311;29;20795;-68
2022/07/28 02:45:31;;;;;;;3.20;1.20;;;;;;;24.68;41.76;100058.28;4949929;29;20842;-69
2022/07/28 02:48:00;;;;;;;3.40;1.20;;;;;;;24.78;42.07;100063.94;4917728;29;20561;-69
2022/07/28 02:50:26;;;;;;;3.63;1.20;;;;;;;24.75;41.99;100064.81;4920861;29;20179;-69
2022/07/28 02:52:53;;;;;;;5.00;1.30;;;;;;;24.79;41.73;100067.66;4902549;29;20439;-69
2022/07/28 02:55:18;;;;;;;2.87;1.20;;;;;;;24.81;41.98;100065.97;4919158;29;20462;-69
2022/07/28 02:57:44;;;;;;;3.13;1.50;;;;;;;24.81;41.94;100071.75;4919036;29;20422;-69
2022/07/28 03:00:12;;;;;;;3.00;1.27;;;;;;;24.81;41.74;100068.03;4918492;29;20573;-69
2022/07/28 03:02:37;;;;;;;4.23;1.20;;;;;;;24.79;41.76;100064.75;4934271;29;20183;-69
2022/07/28 03:05:03;;;;;;;3.97;1.57;;;;;;;24.75;41.58;100061.09;4902454;29;20446;-69
2022/07/28 03:07:31;;;;;;;2.40;1.13;;;;;;;24.77;41.74;100065.19;4934489;29;20185;-69
2022/07/28 03:09:56;;;;;;;3.80;1.43;;;;;;;24.76;41.84;100062.72;4918156;29;20894;-68
2022/07/28 03:12:22;;;;;;;6.23;1.60;;;;;;;24.77;41.86;100061.47;4902724;29;20431;-69
2022/07/28 03:14:48;;;;;;;2.53;1.20;;;;;;;24.76;41.51;100059.81;4918419;29;20198;-70
2022/07/28 03:17:13;;;;;;;7.53;1.40;;;;;;;24.74;41.36;100071.00;4918524;29;20190;-69
2022/07/28 03:19:38;;;;;;;3.47;1.23;;;;;;;24.75;41.73;100070.56;4917682;28;20274;-69
2022/07/28 03:22:05;;;;;;;2.40;0.90;;;;;;;24.76;42.10;100071.38;4918619;29;20199;-69
2022/07/28 03:24:37;;;;;;;4.23;1.60;;;;;;;24.75;41.42;100075.53;4933954;29;20209;-69
2022/07/28 03:27:25;;;;;;;3.97;1.33;;;;;;;24.74;41.90;100071.81;4919114;29;20447;-69
2022/07/28 03:30:12;;;;;;;4.73;1.20;;;;;;;24.74;41.63;100074.69;4932073;29;20446;-68
2022/07/28 03:32:46;;;;;;;3.13;1.00;;;;;;;24.74;41.73;100068.13;4932669;29;21135;-69
2022/07/28 03:35:12;;;;;;;4.63;1.30;;;;;;;24.76;41.69;100071.38;4917259;29;20538;-69
2022/07/28 03:37:45;;;;;;;3.30;1.20;;;;;;;24.74;41.56;100068.91;4932999;29;20936;-68
2022/07/28 03:40:11;;;;;;;8.00;1.27;;;;;;;24.65;42.00;100076.44;4917836;29;20287;-69
2022/07/28 03:42:37;;;;;;;3.50;1.20;;;;;;;24.68;41.89;100072.72;4936193;29;20501;-68
2022/07/28 03:45:03;;;;;;;3.53;1.53;;;;;;;24.70;42.03;100076.00;4918847;29;20309;-68
2022/07/28 03:47:28;;;;;;;2.23;1.20;;;;;;;24.68;41.52;100073.53;4934374;29;20180;-69
2022/07/28 03:49:54;;;;;;;5.80;1.30;;;;;;;24.69;41.82;100072.28;4933919;29;20442;-68
2022/07/28 03:52:19;;;;;;;2.47;1.10;;;;;;;24.70;41.44;100071.03;4933933;29;20556;-68
2022/07/28 03:54:45;;;;;;;6.47;1.37;;;;;;;24.72;41.58;100067.72;4933427;29;20309;-68
2022/07/28 03:57:10;;;;;;;3.97;1.20;;;;;;;24.73;41.68;100067.28;4933098;29;20180;-68
2022/07/28 03:59:36;;;;;;;3.93;1.27;;;;;;;24.68;41.39;100070.63;4932433;29;20208;-69
2022/07/28 04:02:01;;;;;;;7.97;1.80;;;;;;;24.70;41.83;100068.16;4901035;29;20247;-68
2022/07/28 04:04:27;;;;;;;2.83;1.10;;;;;;;24.72;41.65;100064.81;4931880;29;20182;-69
2022/07/28 04:06:52;;;;;;;2.33;1.30;;;;;;;24.68;41.40;100072.72;4932369;29;20180;-69
2022/07/28 04:09:17;;;;;;;4.43;1.63;;;;;;;24.69;41.67;100071.47;4931951;29;20242;-69
2022/07/28 04:11:43;;;;;;;7.33;1.47;;;;;;;24.67;41.62;100071.88;4932511;29;20183;-69
2022/07/28 04:14:08;;;;;;;3.70;1.33;;;;;;;24.68;41.56;100070.63;4932314;29;20283;-68
2022/07/28 04:16:34;;;;;;;5.20;1.67;;;;;;;24.67;41.59;100074.78;4916127;29;20575;-70
2022/07/28 04:18:59;;;;;;;2.50;1.27;;;;;;;24.66;41.83;100075.19;4932328;29;20742;-69
2022/07/28 04:21:25;;;;;;;2.67;1.17;;;;;;;24.69;41.69;100072.28;4933890;29;20263;-69
2022/07/28 04:23:50;;;;;;;3.40;1.57;;;;;;;24.69;41.69;100075.16;4934036;29;20194;-68
2022/07/28 04:26:16;;;;;;;5.73;1.37;;;;;;;24.67;41.52;100074.78;4917949;29;20262;-70
2022/07/28 04:28:42;;;;;;;4.10;1.80;;;;;;;24.65;41.76;100067.78;4918174;29;20172;-68
2022/07/28 04:31:07;;;;;;;4.30;1.37;;;;;;;24.65;41.52;100071.50;4932868;29;20186;-69
2022/07/28 04:33:33;;;;;;;10.50;1.50;;;;;;;24.66;41.63;100066.53;4918040;29;20816;-68
2022/07/28 04:36:00;;;;;;;2.67;1.13;;;;;;;24.66;41.66;100060.75;4942199;28;20232;-68
2022/07/28 04:38:25;;;;;;;3.00;1.57;;;;;;;24.59;41.76;100061.66;4918039;29;20229;-68
2022/07/28 04:40:51;;;;;;;4.20;1.10;;;;;;;24.61;41.45;100064.94;4932963;29;20514;-68
2022/07/28 04:43:16;;;;;;;4.17;1.37;;;;;;;24.65;41.70;100065.75;4922869;29;20179;-68
2022/07/28 04:45:44;;;;;;;5.80;1.40;;;;;;;24.67;41.85;100071.06;4920466;29;20222;-69
2022/07/28 04:48:11;;;;;;;3.97;1.17;;;;;;;24.66;41.35;100066.53;4920923;29;20186;-70
2022/07/28 04:50:37;;;;;;;4.20;1.40;;;;;;;24.64;42.18;100064.06;4920934;29;20932;-68
2022/07/28 04:53:02;;;;;;;3.73;1.57;;;;;;;24.64;41.71;100061.19;4919665;29;20423;-69
2022/07/28 04:55:27;;;;;;;4.47;1.20;;;;;;;24.64;41.67;100069.84;4949052;29;20183;-68
2022/07/28 04:57:53;;;;;;;2.33;1.10;;;;;;;24.64;41.49;100066.16;4952542;29;20565;-69
2022/07/28 05:00:18;;;;;;;3.70;1.33;;;;;;;24.64;41.64;100069.84;4948672;29;20210;-68
2022/07/28 05:02:44;;;;;;;3.50;1.20;;;;;;;24.65;41.68;100064.91;4953853;28;20179;-68
2022/07/28 05:05:10;;;;;;;4.23;1.23;;;;;;;24.62;42.14;100066.59;4916682;29;20206;-69
2022/07/28 05:07:36;;;;;;;3.87;1.10;;;;;;;24.67;41.61;100073.94;4920523;29;20207;-68
2022/07/28 05:10:02;;;;;;;3.60;1.30;;;;;;;24.67;42.03;100071.88;4935849;29;20226;-68
2022/07/28 05:12:28;;;;;;;3.43;1.53;;;;;;;24.62;41.97;100072.34;4904780;29;20423;-68
2022/07/28 05:14:53;;;;;;;4.40;1.20;;;;;;;24.59;42.27;100072.41;4935971;29;20525;-68
2022/07/28 05:17:19;;;;;;;5.60;1.83;;;;;;;24.63;41.97;100073.19;4919995;29;20254;-69
2022/07/28 05:19:44;;;;;;;4.20;1.20;;;;;;;24.64;42.45;100071.94;4936360;29;20966;-68
2022/07/28 05:22:09;;;;;;;2.73;1.20;;;;;;;24.63;41.99;100073.19;4919770;29;20626;-69
2022/07/28 05:24:35;;;;;;;4.63;1.00;;;;;;;24.63;42.28;100065.31;4935527;29;20179;-68
2022/07/28 05:27:00;;;;;;;5.63;1.40;;;;;;;24.63;42.29;100068.22;4935765;29;20175;-68
2022/07/28 05:29:26;;;;;;;5.67;1.27;;;;;;;24.64;42.19;100066.16;4935463;29;20234;-69
2022/07/28 05:31:51;;;;;;;4.30;1.20;;;;;;;24.65;42.29;100068.63;4934957;29;20670;-69
2022/07/28 05:34:17;;;;;;;3.70;1.10;;;;;;;24.65;42.08;100067.78;4935377;29;20241;-70
2022/07/28 05:36:42;;;;;;;5.67;1.63;;;;;;;24.63;42.41;100065.31;4935259;29;20194;-69
2022/07/28 05:39:08;;;;;;;5.80;1.67;;;;;;;24.65;42.36;100079.34;4952113;29;20689;-69
2022/07/28 05:41:33;;;;;;;2.60;1.30;;;;;;;24.66;42.40;100072.31;4919888;29;20179;-69
2022/07/28 05:44:00;;;;;;;3.50;1.10;;;;;;;24.67;42.56;100080.56;4935620;29;20190;-69
2022/07/28 05:46:26;;;;;;;3.20;1.37;;;;;;;24.67;42.53;100073.94;4919377;29;20255;-70
2022/07/28 05:48:51;;;;;;;3.57;1.33;;;;;;;24.66;41.95;100072.31;4935314;29;20575;-69
2022/07/28 05:51:17;;;;;;;4.33;1.50;;;;;;;24.70;42.41;100079.72;4952674;29;20890;-69
2022/07/28 05:53:43;;;;;;;7.80;1.27;;;;;;;24.64;42.36;100078.50;4919425;28;20230;-69
2022/07/28 05:56:08;;;;;;;3.87;1.60;;;;;;;24.64;42.64;100069.84;4935051;28;20175;-69
2022/07/28 05:58:34;;;;;;;4.50;1.37;;;;;;;24.69;42.59;100074.34;4952056;29;20203;-69
2022/07/28 06:01:00;;;;;;;3.90;1.80;;;;;;;24.66;42.58;100075.19;4934600;29;20182;-70
2022/07/28 06:03:26;;;;;;;5.47;1.30;;;;;;;24.67;42.89;100077.66;4919546;29;20191;-69
2022/07/28 06:05:54;;;;;;;8.20;1.60;;;;;;;24.58;42.53;100077.34;4934782;29;20525;-69
2022/07/28 06:08:19;;;;;;;8.30;1.30;;;;;;;24.61;42.41;100070.72;4935178;29;20214;-69
2022/07/28 06:13:29;;;;;;;2.70;1.30;;;;;;;24.60;42.92;100077.75;4937319;29;20614;-69
2022/07/28 06:15:54;;;;;;;4.33;1.30;;;;;;;24.61;42.82;100078.56;4918528;29;20446;-69
2022/07/28 06:18:21;;;;;;;4.30;1.30;;;;;;;24.61;42.70;100079.38;4935030;29;20975;-69
2022/07/28 06:20:46;;;;;;;6.57;1.47;;;;;;;24.60;43.42;100077.75;4934538;29;20650;-69
2022/07/28 06:23:12;;;;;;;5.97;1.27;;;;;;;24.55;43.01;100083.94;4903309;29;20720;-69
2022/07/28 06:25:37;;;;;;;4.13;1.27;;;;;;;24.65;42.90;100085.13;4934873;29;20190;-69
2022/07/28 06:28:03;;;;;;;2.93;1.10;;;;;;;24.65;43.43;100083.06;4918759;29;20261;-69
2022/07/28 06:30:28;;;;;;;13.10;1.20;;;;;;;24.62;42.85;100083.91;4918816;29;20175;-69
2022/07/28 06:32:54;;;;;;;6.03;1.67;;;;;;;24.67;43.21;100082.59;4918703;29;20175;-69
2022/07/28 06:35:19;;;;;;;4.17;1.43;;;;;;;24.56;42.98;100085.59;4937849;29;20314;-69
2022/07/28 06:37:46;;;;;;;5.20;1.33;;;;;;;24.61;43.33;100082.28;4940237;28;20322;-69
2022/07/28 06:40:12;;;;;;;4.03;1.40;;;;;;;24.58;43.17;100070.72;4941690;29;20199;-69
2022/07/28 06:42:38;;;;;;;6.53;1.70;;;;;;;24.55;43.44;100075.28;4934140;29;20423;-69
2022/07/28 06:45:05;;;;;;;2.67;1.40;;;;;;;24.32;44.68;100080.84;4931627;28;20949;-69
2022/07/28 06:47:30;;;;;;;4.20;1.50;;;;;;;24.25;45.67;100086.69;4953991;28;20430;-68
2022/07/28 06:49:55;;;;;;;6.00;2.20;;;;;;;24.74;47.19;100086.25;4953013;28;20410;-69
2022/07/28 06:52:21;;;;;;;7.20;2.23;;;;;;;24.52;46.87;100084.78;4918461;29;20267;-69
2022/07/28 06:54:49;;;;;;;8.47;2.40;;;;;;;24.09;46.97;100079.81;4934242;29;20171;-73
2022/07/28 06:57:15;;;;;;;14.03;1.83;;;;;;;24.09;47.20;100080.63;4937515;29;20187;-69
2022/07/28 06:59:40;;;;;;;6.93;2.47;;;;;;;24.13;48.36;100083.50;4933402;29;20454;-69
2022/07/28 07:02:05;;;;;;;8.77;1.70;;;;;;;24.25;46.52;100082.97;4901322;29;20191;-69
2022/07/28 07:04:35;;;;;;;5.80;2.33;;;;;;;24.11;47.79;100086.81;4916175;28;20635;-71
2022/07/28 07:07:01;;;;;;;7.00;2.07;;;;;;;24.29;46.87;100084.59;4934742;29;20546;-70
2022/07/28 07:09:26;;;;;;;5.73;1.40;;;;;;;24.30;46.62;100076.75;4935432;29;20418;-70
2022/07/28 07:11:51;;;;;;;6.17;1.70;;;;;;;24.40;46.72;100087.38;4937559;29;20190;-71
2022/07/28 07:14:17;;;;;;;5.30;1.90;;;;;;;24.19;46.68;100078.91;4921857;29;20187;-69
2022/07/28 07:16:43;;;;;;;7.97;1.63;;;;;;;23.89;46.36;100084.50;4938203;29;20174;-70
2022/07/28 07:19:08;;;;;;;3.30;1.57;;;;;;;24.01;45.91;100078.22;4938339;29;20242;-69
2022/07/28 07:21:34;;;;;;;11.30;2.27;;;;;;;24.20;46.80;100075.63;4938136;29;20179;-71
2022/07/28 07:23:59;;;;;;;6.70;2.60;;;;;;;24.29;47.30;100075.13;4955294;29;20190;-70
2022/07/28 07:26:25;;;;;;;4.23;1.23;;;;;;;24.38;46.77;100078.34;4954980;29;20185;-70
2022/07/28 07:28:50;;;;;;;4.93;1.70;;;;;;;24.23;46.44;100079.72;4921818;29;20556;-70
2022/07/28 07:31:15;;;;;;;4.30;1.50;;;;;;;24.23;46.27;100083.41;4937815;29;20516;-70
2022/07/28 07:33:41;;;;;;;7.67;1.80;;;;;;;24.21;45.99;100076.41;4921523;29;20590;-69
2022/07/28 07:36:06;;;;;;;3.17;1.37;;;;;;;24.44;45.78;100077.44;4933132;29;20231;-69
2022/07/28 07:38:32;;;;;;;5.60;1.70;;;;;;;24.46;45.62;100074.97;4953507;29;20630;-72
2022/07/28 07:40:57;;;;;;;4.30;1.63;;;;;;;24.38;45.69;100073.38;4953573;29;20174;-69
2022/07/28 07:43:23;;;;;;;3.63;1.80;;;;;;;24.26;45.90;100070.19;4931786;29;20176;-69
2022/07/28 07:45:48;;;;;;;5.60;1.40;;;;;;;24.39;45.60;100065.56;4933409;29;20198;-71
2022/07/28 07:48:13;;;;;;;4.23;1.90;;;;;;;24.38;45.75;100063.91;4934273;29;20168;-71
2022/07/28 07:50:39;;;;;;;7.73;1.70;;;;;;;24.47;45.53;100070.81;4933423;29;20180;-70
2022/07/28 07:53:04;;;;;;;4.43;1.80;;;;;;;24.41;45.13;100063.03;4931518;29;20235;-70
2022/07/28 07:55:30;;;;;;;6.17;1.97;;;;;;;24.38;45.43;100064.72;4900280;29;20702;-70
2022/07/28 07:57:56;;;;;;;3.53;1.30;;;;;;;24.20;45.60;100061.19;4932466;29;20187;-70
2022/07/28 08:00:21;;;;;;;6.13;1.90;;;;;;;24.22;45.60;100067.34;4916386;29;20321;-71
2022/07/28 08:02:47;;;;;;;5.30;1.83;;;;;;;24.30;45.52;100066.03;4934384;29;20426;-69
2022/07/28 08:05:12;;;;;;;10.10;1.83;;;;;;;24.35;45.57;100062.72;4919455;29;20185;-69
2022/07/28 08:07:38;;;;;;;4.80;1.67;;;;;;;24.32;45.37;100063.53;4914365;29;20187;-70
2022/07/28 08:10:04;;;;;;;5.67;2.00;;;;;;;24.57;45.09;100057.53;4931734;29;20588;-70
2022/07/28 08:12:30;;;;;;;9.93;2.30;;;;;;;24.64;45.39;100064.06;4916456;29;20179;-70
2022/07/28 08:14:55;;;;;;;5.43;1.70;;;;;;;24.76;46.01;100069.31;4928506;29;20459;-69
2022/07/28 08:17:21;;;;;;;4.17;1.63;;;;;;;24.73;45.87;100061.50;4931794;29;20187;-70
2022/07/28 08:19:47;;;;;;;6.23;2.20;;;;;;;24.76;46.12;100059.81;4931578;29;20210;-69
2022/07/28 08:22:13;;;;;;;4.43;2.30;;;;;;;24.58;45.36;100057.13;4931726;29;20436;-69
2022/07/28 08:24:39;;;;;;;4.20;1.70;;;;;;;24.65;45.26;100057.06;4931506;29;21041;-70
2022/07/28 08:27:04;;;;;;;4.87;1.73;;;;;;;24.70;45.90;100058.66;4915854;29;20180;-69
2022/07/28 08:29:30;;;;;;;5.60;1.97;;;;;;;24.64;45.28;100069.03;4916921;29;20184;-69
2022/07/28 08:31:55;;;;;;;8.40;2.47;;;;;;;24.68;45.55;100061.97;4917088;29;20242;-69
2022/07/28 08:34:21;;;;;;;4.37;1.87;;;;;;;24.64;45.42;100057.50;4931023;29;20234;-71
2022/07/28 08:36:46;;;;;;;5.37;1.80;;;;;;;24.55;45.48;100057.97;4931198;29;20191;-71
2022/07/28 08:39:11;;;;;;;6.87;2.27;;;;;;;24.62;46.05;100055.03;4938301;28;20203;-71
2022/07/28 08:41:46;;;;;;;13.53;2.83;;;;;;;24.58;45.55;100048.47;4931801;29;20329;-70
2022/07/28 08:44:15;;;;;;;7.97;2.40;;;;;;;24.62;46.37;100049.25;4914970;29;20184;-70
2022/07/28 08:46:41;;;;;;;4.47;2.27;;;;;;;24.73;45.98;100052.84;4912091;29;20428;-70
2022/07/28 08:49:07;;;;;;;15.20;2.50;;;;;;;24.73;45.64;100049.97;4931344;29;20487;-69
2022/07/28 08:51:33;;;;;;;6.70;2.10;;;;;;;24.82;45.66;100053.16;4901528;29;20447;-71
2022/07/28 08:53:58;;;;;;;9.20;1.80;;;;;;;24.85;45.69;100055.19;4933536;29;20568;-70
2022/07/28 08:56:23;;;;;;;5.33;2.30;;;;;;;24.82;46.18;100061.81;4916850;29;20211;-71
2022/07/28 08:58:49;;;;;;;6.83;2.27;;;;;;;24.77;46.08;100056.53;4916114;29;20211;-72
2022/07/28 09:01:15;;;;;;;6.17;2.20;;;;;;;24.75;46.19;100058.19;4915996;29;20884;-70
2022/07/28 09:03:40;;;;;;;3.70;2.00;;;;;;;24.84;46.22;100050.66;4899324;29;20671;-70
2022/07/28 09:06:06;;;;;;;8.93;2.20;;;;;;;24.93;46.87;100064.59;4931220;29;20527;-71
2022/07/28 09:08:32;;;;;;;9.27;2.37;;;;;;;25.00;46.68;100061.63;4932406;29;20185;-69
2022/07/28 09:10:57;;;;;;;5.83;2.07;;;;;;;25.03;46.61;100052.91;4927257;29;20188;-70
2022/07/28 09:13:22;;;;;;;5.40;2.27;;;;;;;24.99;46.79;100046.34;4915194;29;20208;-69
2022/07/28 09:15:48;;;;;;;8.23;2.57;;;;;;;25.00;46.70;100050.91;4898467;29;20183;-70
2022/07/28 09:18:14;;;;;;;9.70;2.50;;;;;;;25.03;46.84;100043.44;4899649;29;20192;-70
2022/07/28 09:20:40;;;;;;;10.37;2.10;;;;;;;25.07;46.98;100030.56;4931805;29;20214;-70
2022/07/28 09:23:06;;;;;;;6.63;1.83;;;;;;;25.14;47.30;100038.34;4932207;29;20435;-69
2022/07/28 09:25:31;;;;;;;5.60;2.40;;;;;;;25.12;46.55;100026.38;4900915;29;20239;-70
2022/07/28 09:28:11;;;;;;;6.47;2.30;;;;;;;25.14;46.42;100026.78;4932373;29;20606;-70
2022/07/28 09:30:39;;;;;;;6.47;2.00;;;;;;;25.14;46.94;100021.00;4928105;29;20292;-70
2022/07/28 09:33:16;;;;;;;7.10;2.30;;;;;;;25.14;46.85;100023.88;4931399;29;20919;-71
2022/07/28 09:35:46;;;;;;;8.20;2.90;;;;;;;25.14;46.80;100018.13;4948192;29;20529;-71
2022/07/28 09:38:12;;;;;;;8.77;2.80;;;;;;;25.15;46.90;100013.97;4916576;29;20447;-70
2022/07/28 09:40:38;;;;;;;8.30;2.93;;;;;;;25.17;46.91;100018.06;4930278;29;21199;-71
2022/07/28 09:43:04;;;;;;;6.07;2.77;;;;;;;25.19;46.87;100023.41;4902511;29;20225;-70
2022/07/28 09:45:29;;;;;;;3.20;1.80;;;;;;;25.21;46.55;100006.44;4918641;29;20423;-70
2022/07/28 09:48:11;;;;;;;5.80;2.40;;;;;;;25.18;46.98;100008.13;4934431;29;20193;-70
2022/07/28 09:50:40;;;;;;;10.03;2.83;;;;;;;25.13;47.03;100008.63;4917356;29;20316;-71
2022/07/28 09:53:21;;;;;;;4.20;2.00;;;;;;;25.18;47.00;100007.34;4951274;29;20433;-69
2022/07/28 09:55:58;;;;;;;6.80;3.07;;;;;;;25.23;46.72;100003.97;4923645;29;20430;-70
2022/07/28 09:58:24;;;;;;;4.63;2.80;;;;;;;25.24;47.30;100002.69;4919312;29;20574;-69
2022/07/28 10:00:49;;;;;;;4.97;2.47;;;;;;;25.25;47.25;99999.41;4917674;28;20505;-69
2022/07/28 10:03:25;;;;;;;7.50;2.67;;;;;;;25.27;47.54;100005.56;4934147;29;20192;-70
2022/07/28 10:05:50;;;;;;;12.03;2.70;;;;;;;25.22;47.70;100006.03;4933815;29;20179;-70
2022/07/28 10:08:15;;;;;;;9.67;2.50;;;;;;;25.23;47.46;100007.66;4918073;29;20767;-70
2022/07/28 10:10:41;;;;;;;6.13;2.50;;;;;;;25.25;47.86;100001.44;4934057;29;20174;-70
2022/07/28 10:13:06;;;;;;;8.10;2.80;;;;;;;25.26;47.15;99995.28;4934362;29;20187;-70
2022/07/28 10:18:16;;;;;;;4.00;2.47;;;;;;;25.27;47.53;99994.00;4923415;29;20197;-69
2022/07/28 10:20:41;;;;;;;5.57;2.60;;;;;;;25.31;48.11;99989.00;4900405;29;21154;-70
2022/07/28 10:23:10;;;;;;;8.13;3.03;;;;;;;25.32;48.19;99989.81;4932607;29;20855;-70
2022/07/28 10:25:35;;;;;;;6.30;2.87;;;;;;;25.32;47.74;99986.91;4915915;29;20190;-70
2022/07/28 10:28:01;;;;;;;16.47;2.70;;;;;;;25.35;47.98;99984.00;4907039;29;20434;-70
2022/07/28 10:30:27;;;;;;;5.20;2.93;;;;;;;25.40;47.67;99979.78;4917672;29;20186;-70
2022/07/28 10:32:53;;;;;;;6.33;2.87;;;;;;;25.43;48.24;99988.41;4918985;29;20914;-70
2022/07/28 10:35:18;;;;;;;5.67;3.20;;;;;;;25.45;48.22;99982.19;4932058;29;20238;-70
2022/07/28 10:38:00;;;;;;;6.70;3.10;;;;;;;25.46;48.23;99984.66;4934459;29;20185;-69
2022/07/28 10:40:28;;;;;;;5.20;2.60;;;;;;;25.48;48.45;99975.53;4928063;29;20636;-70
2022/07/28 10:42:54;;;;;;;9.83;3.27;;;;;;;25.47;47.86;99968.94;4898365;29;20562;-69
2022/07/28 10:45:19;;;;;;;6.27;3.13;;;;;;;25.52;48.42;99964.72;4918198;29;20434;-70
2022/07/28 10:47:45;;;;;;;5.00;2.93;;;;;;;25.49;48.64;99963.53;4917558;29;20183;-70
2022/07/28 10:50:10;;;;;;;5.30;2.50;;;;;;;25.52;48.26;99959.78;4932429;29;20175;-71
2022/07/28 10:52:37;;;;;;;8.27;3.17;;;;;;;25.56;48.17;99960.53;4949616;29;20179;-69
2022/07/28 10:55:32;;;;;;;6.97;3.50;;;;;;;25.55;48.29;99967.59;4931894;29;20594;-69
2022/07/28 10:58:28;;;;;;;5.40;2.80;;;;;;;25.60;48.30;99961.31;4938011;29;20446;-69
2022/07/28 11:00:54;;;;;;;7.20;3.27;;;;;;;25.56;48.06;99954.75;4932002;29;20466;-69
2022/07/28 11:03:34;;;;;;;10.30;3.20;;;;;;;25.60;48.48;99951.81;4903025;29;20432;-69
2022/07/28 11:06:22;;;;;;;10.13;3.67;;;;;;;25.63;48.30;99957.53;4941339;29;20202;-70
2022/07/28 11:08:47;;;;;;;9.03;3.10;;;;;;;25.69;48.06;99958.66;4950325;29;20514;-69
2022/07/28 11:11:13;;;;;;;5.47;3.50;;;;;;;25.68;47.91;99957.03;4933074;29;20433;-70
2022/07/28 11:13:38;;;;;;;5.83;3.17;;;;;;;25.65;48.27;99955.00;4933485;29;20186;-70
2022/07/28 11:16:13;;;;;;;5.13;3.20;;;;;;;25.70;48.30;99963.19;4901774;29;20251;-70
2022/07/28 11:19:00;;;;;;;8.23;3.33;;;;;;;25.74;48.29;99960.25;4950966;28;20542;-70
2022/07/28 11:21:26;;;;;;;9.10;3.80;;;;;;;25.72;48.10;99952.00;4951233;29;20454;-69
2022/07/28 11:23:55;;;;;;;7.30;3.80;;;;;;;25.74;48.61;99951.56;4933640;29;20435;-70
2022/07/28 11:26:23;;;;;;;7.50;4.20;;;;;;;25.76;48.60;99952.78;4917594;29;20187;-70
2022/07/28 11:29:04;;;;;;;7.33;3.63;;;;;;;25.76;48.40;99949.06;4950716;29;20771;-69
2022/07/28 11:31:47;;;;;;;8.33;3.43;;;;;;;25.82;48.67;99955.97;4950240;29;20977;-69
2022/07/28 11:34:16;;;;;;;9.40;3.87;;;;;;;25.82;48.84;99933.66;4950661;28;20474;-70